sensor_id;sensor_type;location;lat;lon;timestamp;temperature;humidity
68658;DHT22;55639;53.480;-2.228;2022-08-21T00:02:27;26.40;41.90
68658;DHT22;55639;53.480;-2.228;2022-08-21T00:04:53;26.40;41.90
68658;DHT22;55639;53.480;-2.228;2022-08-21T00:07:20;26.40;41.90
68658;DHT22;55639;53.480;-2.228;2022-08-21T00:09:46;26.40;41.90
68658;DHT22;55639;53.480;-2.228;2022-08-21T00:12:12;26.40;41.90
68658;DHT22;55639;53.480;-2.228;2022-08-21T00:14:38;26.40;41.90
68658;DHT22;55639;53.480;-2.228;2022-08-21T00:17:05;26.40;41.90
68658;DHT22;55639;53.480;-2.228;2022-08-21T00:19:31;26.40;41.90
68658;DHT22;55639;53.480;-2.228;2022-08-21T00:21:57;26.40;41.90
68658;DHT22;55639;53.480;-2.228;2022-08-21T00:24:23;26.40;42.00
68658;DHT22;55639;53.480;-2.228;2022-08-21T00:26:50;26.40;42.00
68658;DHT22;55639;53.480;-2.228;2022-08-21T00:29:17;26.40;42.00
68658;DHT22;55639;53.480;-2.228;2022-08-21T00:31:43;26.40;42.00
68658;DHT22;55639;53.480;-2.228;2022-08-21T00:34:10;26.40;42.10
68658;DHT22;55639;53.480;-2.228;2022-08-21T00:36:36;26.30;42.00
68658;DHT22;55639;53.480;-2.228;2022-08-21T00:39:03;26.30;42.00
68658;DHT22;55639;53.480;-2.228;2022-08-21T00:41:29;26.30;42.00
68658;DHT22;55639;53.480;-2.228;2022-08-21T00:43:55;26.30;42.00
68658;DHT22;55639;53.480;-2.228;2022-08-21T00:46:21;26.30;42.00
68658;DHT22;55639;53.480;-2.228;2022-08-21T00:48:46;26.30;42.00
68658;DHT22;55639;53.480;-2.228;2022-08-21T00:51:23;26.30;42.10
68658;DHT22;55639;53.480;-2.228;2022-08-21T00:53:56;26.30;42.10
68658;DHT22;55639;53.480;-2.228;2022-08-21T00:56:25;26.30;42.10
68658;DHT22;55639;53.480;-2.228;2022-08-21T00:58:52;26.30;42.10
68658;DHT22;55639;53.480;-2.228;2022-08-21T01:01:19;26.30;42.10
68658;DHT22;55639;53.480;-2.228;2022-08-21T01:03:46;26.30;42.10
68658;DHT22;55639;53.480;-2.228;2022-08-21T01:06:12;26.30;42.20
68658;DHT22;55639;53.480;-2.228;2022-08-21T01:08:37;26.30;42.20
68658;DHT22;55639;53.480;-2.228;2022-08-21T01:11:04;26.30;42.20
68658;DHT22;55639;53.480;-2.228;2022-08-21T01:13:34;26.30;42.20
68658;DHT22;55639;53.480;-2.228;2022-08-21T01:16:03;26.30;42.20
68658;DHT22;55639;53.480;-2.228;2022-08-21T01:18:29;26.30;42.20
68658;DHT22;55639;53.480;-2.228;2022-08-21T01:21:11;26.30;42.30
68658;DHT22;55639;53.480;-2.228;2022-08-21T01:23:40;26.30;42.20
68658;DHT22;55639;53.480;-2.228;2022-08-21T01:26:06;26.30;42.30
68658;DHT22;55639;53.480;-2.228;2022-08-21T01:28:36;26.30;42.30
68658;DHT22;55639;53.480;-2.228;2022-08-21T01:31:06;26.30;42.30
68658;DHT22;55639;53.480;-2.228;2022-08-21T01:33:33;26.30;42.30
68658;DHT22;55639;53.480;-2.228;2022-08-21T01:35:59;26.30;42.30
68658;DHT22;55639;53.480;-2.228;2022-08-21T01:38:25;26.30;42.30
68658;DHT22;55639;53.480;-2.228;2022-08-21T01:40:50;26.20;42.30
68658;DHT22;55639;53.480;-2.228;2022-08-21T01:43:16;26.20;42.30
68658;DHT22;55639;53.480;-2.228;2022-08-21T01:45:41;26.30;42.40
68658;DHT22;55639;53.480;-2.228;2022-08-21T01:48:07;26.20;42.30
68658;DHT22;55639;53.480;-2.228;2022-08-21T01:50:33;26.20;42.30
68658;DHT22;55639;53.480;-2.228;2022-08-21T01:52:59;26.20;42.30
68658;DHT22;55639;53.480;-2.228;2022-08-21T01:55:25;26.20;42.30
68658;DHT22;55639;53.480;-2.228;2022-08-21T01:57:51;26.20;42.30
68658;DHT22;55639;53.480;-2.228;2022-08-21T02:00:19;26.20;42.30
68658;DHT22;55639;53.480;-2.228;2022-08-21T02:02:45;26.20;42.30
68658;DHT22;55639;53.480;-2.228;2022-08-21T02:05:12;26.20;42.30
68658;DHT22;55639;53.480;-2.228;2022-08-21T02:07:44;26.20;42.30
68658;DHT22;55639;53.480;-2.228;2022-08-21T02:10:12;26.20;42.30
68658;DHT22;55639;53.480;-2.228;2022-08-21T02:12:38;26.20;42.40
68658;DHT22;55639;53.480;-2.228;2022-08-21T02:15:06;26.20;42.40
68658;DHT22;55639;53.480;-2.228;2022-08-21T02:20:05;26.20;42.40
68658;DHT22;55639;53.480;-2.228;2022-08-21T02:22:31;26.20;42.40
68658;DHT22;55639;53.480;-2.228;2022-08-21T02:24:57;26.20;42.50
68658;DHT22;55639;53.480;-2.228;2022-08-21T02:27:23;26.20;42.50
68658;DHT22;55639;53.480;-2.228;2022-08-21T02:29:49;26.20;42.40
68658;DHT22;55639;53.480;-2.228;2022-08-21T02:32:15;26.20;42.40
68658;DHT22;55639;53.480;-2.228;2022-08-21T02:34:41;26.20;42.50
68658;DHT22;55639;53.480;-2.228;2022-08-21T02:37:06;26.20;42.50
68658;DHT22;55639;53.480;-2.228;2022-08-21T02:39:32;26.20;42.50
68658;DHT22;55639;53.480;-2.228;2022-08-21T02:41:58;26.20;42.50
68658;DHT22;55639;53.480;-2.228;2022-08-21T02:44:23;26.20;42.50
68658;DHT22;55639;53.480;-2.228;2022-08-21T02:46:49;26.10;42.40
68658;DHT22;55639;53.480;-2.228;2022-08-21T02:49:15;26.10;42.40
68658;DHT22;55639;53.480;-2.228;2022-08-21T02:51:40;26.20;42.50
68658;DHT22;55639;53.480;-2.228;2022-08-21T02:54:06;26.20;42.50
68658;DHT22;55639;53.480;-2.228;2022-08-21T02:56:32;26.10;42.50
68658;DHT22;55639;53.480;-2.228;2022-08-21T02:58:57;26.10;42.50
68658;DHT22;55639;53.480;-2.228;2022-08-21T03:01:23;26.10;42.50
68658;DHT22;55639;53.480;-2.228;2022-08-21T03:03:49;26.10;42.50
68658;DHT22;55639;53.480;-2.228;2022-08-21T03:06:19;26.20;42.60
68658;DHT22;55639;53.480;-2.228;2022-08-21T03:08:45;26.10;42.50
68658;DHT22;55639;53.480;-2.228;2022-08-21T03:11:12;26.10;42.50
68658;DHT22;55639;53.480;-2.228;2022-08-21T03:13:37;26.10;42.50
68658;DHT22;55639;53.480;-2.228;2022-08-21T03:16:04;26.10;42.50
68658;DHT22;55639;53.480;-2.228;2022-08-21T03:18:30;26.10;42.50
68658;DHT22;55639;53.480;-2.228;2022-08-21T03:20:55;26.10;42.50
68658;DHT22;55639;53.480;-2.228;2022-08-21T03:23:22;26.10;42.50
68658;DHT22;55639;53.480;-2.228;2022-08-21T03:25:48;26.10;42.60
68658;DHT22;55639;53.480;-2.228;2022-08-21T03:28:17;26.10;42.60
68658;DHT22;55639;53.480;-2.228;2022-08-21T03:30:44;26.10;42.50
68658;DHT22;55639;53.480;-2.228;2022-08-21T03:33:12;26.10;42.60
68658;DHT22;55639;53.480;-2.228;2022-08-21T03:35:38;26.10;42.60
68658;DHT22;55639;53.480;-2.228;2022-08-21T03:38:03;26.10;42.60
68658;DHT22;55639;53.480;-2.228;2022-08-21T03:40:29;26.10;42.60
68658;DHT22;55639;53.480;-2.228;2022-08-21T03:42:54;26.10;42.60
68658;DHT22;55639;53.480;-2.228;2022-08-21T03:45:21;26.10;42.60
68658;DHT22;55639;53.480;-2.228;2022-08-21T03:47:57;26.10;42.60
68658;DHT22;55639;53.480;-2.228;2022-08-21T03:50:29;26.10;42.60
68658;DHT22;55639;53.480;-2.228;2022-08-21T03:52:55;26.10;42.60
68658;DHT22;55639;53.480;-2.228;2022-08-21T03:55:21;26.10;42.60
68658;DHT22;55639;53.480;-2.228;2022-08-21T03:57:47;26.10;42.60
68658;DHT22;55639;53.480;-2.228;2022-08-21T04:00:14;26.10;42.70
68658;DHT22;55639;53.480;-2.228;2022-08-21T04:02:41;26.10;42.60
68658;DHT22;55639;53.480;-2.228;2022-08-21T04:05:08;26.10;42.60
68658;DHT22;55639;53.480;-2.228;2022-08-21T04:07:33;26.10;42.70
68658;DHT22;55639;53.480;-2.228;2022-08-21T04:09:59;26.10;42.70
68658;DHT22;55639;53.480;-2.228;2022-08-21T04:12:24;26.10;42.70
68658;DHT22;55639;53.480;-2.228;2022-08-21T04:14:50;26.10;42.70
68658;DHT22;55639;53.480;-2.228;2022-08-21T04:17:18;26.10;42.70
68658;DHT22;55639;53.480;-2.228;2022-08-21T04:19:44;26.10;42.70
68658;DHT22;55639;53.480;-2.228;2022-08-21T04:22:12;26.00;42.60
68658;DHT22;55639;53.480;-2.228;2022-08-21T04:24:38;26.10;42.70
68658;DHT22;55639;53.480;-2.228;2022-08-21T04:27:04;26.10;42.70
68658;DHT22;55639;53.480;-2.228;2022-08-21T04:29:29;26.10;42.80
68658;DHT22;55639;53.480;-2.228;2022-08-21T04:31:55;26.10;42.70
68658;DHT22;55639;53.480;-2.228;2022-08-21T04:34:21;26.10;42.70
68658;DHT22;55639;53.480;-2.228;2022-08-21T04:36:46;26.10;42.70
68658;DHT22;55639;53.480;-2.228;2022-08-21T04:39:12;26.10;42.70
68658;DHT22;55639;53.480;-2.228;2022-08-21T04:41:37;26.00;42.70
68658;DHT22;55639;53.480;-2.228;2022-08-21T04:44:04;26.10;42.80
68658;DHT22;55639;53.480;-2.228;2022-08-21T04:46:29;26.00;42.70
68658;DHT22;55639;53.480;-2.228;2022-08-21T04:48:55;26.00;42.70
68658;DHT22;55639;53.480;-2.228;2022-08-21T04:51:28;26.10;42.80
68658;DHT22;55639;53.480;-2.228;2022-08-21T04:54:08;26.10;42.80
68658;DHT22;55639;53.480;-2.228;2022-08-21T04:56:40;26.10;42.80
68658;DHT22;55639;53.480;-2.228;2022-08-21T04:59:13;26.00;42.80
68658;DHT22;55639;53.480;-2.228;2022-08-21T05:01:42;26.00;42.80
68658;DHT22;55639;53.480;-2.228;2022-08-21T05:04:12;26.00;42.80
68658;DHT22;55639;53.480;-2.228;2022-08-21T05:06:40;26.00;42.80
68658;DHT22;55639;53.480;-2.228;2022-08-21T05:09:07;26.00;42.80
68658;DHT22;55639;53.480;-2.228;2022-08-21T05:11:35;26.00;42.90
68658;DHT22;55639;53.480;-2.228;2022-08-21T05:14:02;26.00;42.80
68658;DHT22;55639;53.480;-2.228;2022-08-21T05:16:28;26.00;42.80
68658;DHT22;55639;53.480;-2.228;2022-08-21T05:18:53;26.00;42.80
68658;DHT22;55639;53.480;-2.228;2022-08-21T05:21:19;26.00;42.80
68658;DHT22;55639;53.480;-2.228;2022-08-21T05:23:46;26.00;42.80
68658;DHT22;55639;53.480;-2.228;2022-08-21T05:26:11;26.00;42.80
68658;DHT22;55639;53.480;-2.228;2022-08-21T05:28:37;26.00;42.80
68658;DHT22;55639;53.480;-2.228;2022-08-21T05:31:03;26.00;42.90
68658;DHT22;55639;53.480;-2.228;2022-08-21T05:33:29;26.00;42.80
68658;DHT22;55639;53.480;-2.228;2022-08-21T05:35:54;26.00;42.80
68658;DHT22;55639;53.480;-2.228;2022-08-21T05:38:25;26.00;42.90
68658;DHT22;55639;53.480;-2.228;2022-08-21T05:40:52;26.00;42.90
68658;DHT22;55639;53.480;-2.228;2022-08-21T05:43:18;26.00;42.90
68658;DHT22;55639;53.480;-2.228;2022-08-21T05:45:43;26.00;42.90
68658;DHT22;55639;53.480;-2.228;2022-08-21T05:48:20;25.90;42.80
68658;DHT22;55639;53.480;-2.228;2022-08-21T05:50:47;25.90;42.80
68658;DHT22;55639;53.480;-2.228;2022-08-21T05:53:15;26.00;42.80
68658;DHT22;55639;53.480;-2.228;2022-08-21T05:55:42;25.90;42.80
68658;DHT22;55639;53.480;-2.228;2022-08-21T05:58:08;25.90;42.80
68658;DHT22;55639;53.480;-2.228;2022-08-21T06:00:33;25.90;42.80
68658;DHT22;55639;53.480;-2.228;2022-08-21T06:02:59;26.00;42.80
68658;DHT22;55639;53.480;-2.228;2022-08-21T06:05:25;25.90;42.80
68658;DHT22;55639;53.480;-2.228;2022-08-21T06:07:52;25.90;42.80
68658;DHT22;55639;53.480;-2.228;2022-08-21T06:10:18;26.00;42.90
68658;DHT22;55639;53.480;-2.228;2022-08-21T06:12:43;26.00;42.80
68658;DHT22;55639;53.480;-2.228;2022-08-21T06:15:09;26.00;42.80
68658;DHT22;55639;53.480;-2.228;2022-08-21T06:17:35;26.00;42.80
68658;DHT22;55639;53.480;-2.228;2022-08-21T06:20:01;25.90;42.80
68658;DHT22;55639;53.480;-2.228;2022-08-21T06:22:26;25.90;42.80
68658;DHT22;55639;53.480;-2.228;2022-08-21T06:24:52;25.90;42.80
68658;DHT22;55639;53.480;-2.228;2022-08-21T06:27:18;25.90;42.80
68658;DHT22;55639;53.480;-2.228;2022-08-21T06:29:43;25.90;42.80
68658;DHT22;55639;53.480;-2.228;2022-08-21T06:32:13;25.90;42.80
68658;DHT22;55639;53.480;-2.228;2022-08-21T06:34:40;25.90;42.80
68658;DHT22;55639;53.480;-2.228;2022-08-21T06:37:07;25.90;42.80
68658;DHT22;55639;53.480;-2.228;2022-08-21T06:39:33;25.90;42.80
68658;DHT22;55639;53.480;-2.228;2022-08-21T06:41:59;25.90;42.80
68658;DHT22;55639;53.480;-2.228;2022-08-21T06:44:25;25.90;42.80
68658;DHT22;55639;53.480;-2.228;2022-08-21T06:46:50;25.90;42.80
68658;DHT22;55639;53.480;-2.228;2022-08-21T06:49:16;25.90;42.80
68658;DHT22;55639;53.480;-2.228;2022-08-21T06:51:41;25.90;42.80
68658;DHT22;55639;53.480;-2.228;2022-08-21T06:54:07;25.90;42.80
68658;DHT22;55639;53.480;-2.228;2022-08-21T06:56:34;25.90;42.80
68658;DHT22;55639;53.480;-2.228;2022-08-21T06:59:02;25.90;42.80
68658;DHT22;55639;53.480;-2.228;2022-08-21T07:01:28;25.90;42.80
68658;DHT22;55639;53.480;-2.228;2022-08-21T07:03:53;25.90;42.80
68658;DHT22;55639;53.480;-2.228;2022-08-21T07:06:19;25.90;42.80
68658;DHT22;55639;53.480;-2.228;2022-08-21T07:08:45;25.90;42.80
68658;DHT22;55639;53.480;-2.228;2022-08-21T07:11:18;25.90;42.80
68658;DHT22;55639;53.480;-2.228;2022-08-21T07:13:44;25.90;42.80
68658;DHT22;55639;53.480;-2.228;2022-08-21T07:16:10;25.90;42.80
68658;DHT22;55639;53.480;-2.228;2022-08-21T07:18:35;25.90;42.80
68658;DHT22;55639;53.480;-2.228;2022-08-21T07:21:03;25.90;42.80
68658;DHT22;55639;53.480;-2.228;2022-08-21T07:23:37;25.90;42.80
68658;DHT22;55639;53.480;-2.228;2022-08-21T07:26:05;25.90;43.40
68658;DHT22;55639;53.480;-2.228;2022-08-21T07:28:31;25.90;42.80
68658;DHT22;55639;53.480;-2.228;2022-08-21T07:30:58;25.90;42.80
68658;DHT22;55639;53.480;-2.228;2022-08-21T07:33:26;25.90;42.80
68658;DHT22;55639;53.480;-2.228;2022-08-21T07:35:52;25.90;42.80
68658;DHT22;55639;53.480;-2.228;2022-08-21T07:38:18;25.90;42.80
68658;DHT22;55639;53.480;-2.228;2022-08-21T07:40:45;25.80;42.70
68658;DHT22;55639;53.480;-2.228;2022-08-21T07:43:12;25.80;42.70
68658;DHT22;55639;53.480;-2.228;2022-08-21T07:45:37;25.90;42.80
68658;DHT22;55639;53.480;-2.228;2022-08-21T07:48:04;25.90;42.80
68658;DHT22;55639;53.480;-2.228;2022-08-21T07:50:30;25.90;42.80
68658;DHT22;55639;53.480;-2.228;2022-08-21T07:52:55;25.90;42.80
68658;DHT22;55639;53.480;-2.228;2022-08-21T07:55:22;25.80;42.70
68658;DHT22;55639;53.480;-2.228;2022-08-21T07:57:48;25.90;42.80
68658;DHT22;55639;53.480;-2.228;2022-08-21T08:00:17;25.90;42.80
68658;DHT22;55639;53.480;-2.228;2022-08-21T08:02:47;25.80;42.70
68658;DHT22;55639;53.480;-2.228;2022-08-21T08:05:15;25.80;42.70
68658;DHT22;55639;53.480;-2.228;2022-08-21T08:07:42;25.80;42.70
68658;DHT22;55639;53.480;-2.228;2022-08-21T08:10:08;25.80;42.70
68658;DHT22;55639;53.480;-2.228;2022-08-21T08:12:40;25.80;42.70
68658;DHT22;55639;53.480;-2.228;2022-08-21T08:15:09;25.80;42.70
68658;DHT22;55639;53.480;-2.228;2022-08-21T08:17:34;25.80;42.70
68658;DHT22;55639;53.480;-2.228;2022-08-21T08:20:00;25.80;43.30
68658;DHT22;55639;53.480;-2.228;2022-08-21T08:22:27;25.80;42.70
68658;DHT22;55639;53.480;-2.228;2022-08-21T08:24:52;25.80;42.70
68658;DHT22;55639;53.480;-2.228;2022-08-21T08:27:18;25.80;42.70
68658;DHT22;55639;53.480;-2.228;2022-08-21T08:29:45;25.80;42.70
68658;DHT22;55639;53.480;-2.228;2022-08-21T08:32:11;25.80;42.70
68658;DHT22;55639;53.480;-2.228;2022-08-21T08:34:38;25.80;42.70
68658;DHT22;55639;53.480;-2.228;2022-08-21T08:37:05;25.80;42.70
68658;DHT22;55639;53.480;-2.228;2022-08-21T08:39:31;25.80;42.70
68658;DHT22;55639;53.480;-2.228;2022-08-21T08:42:08;25.80;42.70
68658;DHT22;55639;53.480;-2.228;2022-08-21T08:44:36;25.80;42.70
68658;DHT22;55639;53.480;-2.228;2022-08-21T08:47:03;25.80;42.70
68658;DHT22;55639;53.480;-2.228;2022-08-21T08:52:05;25.80;42.70
68658;DHT22;55639;53.480;-2.228;2022-08-21T08:54:39;25.80;42.60
68658;DHT22;55639;53.480;-2.228;2022-08-21T08:57:14;25.80;42.60
68658;DHT22;55639;53.480;-2.228;2022-08-21T08:59:42;25.80;42.60
68658;DHT22;55639;53.480;-2.228;2022-08-21T09:02:11;25.80;42.70
68658;DHT22;55639;53.480;-2.228;2022-08-21T09:04:37;25.80;42.70
68658;DHT22;55639;53.480;-2.228;2022-08-21T09:15:33;25.80;42.70
68658;DHT22;55639;53.480;-2.228;2022-08-21T09:24:00;25.80;42.70
68658;DHT22;55639;53.480;-2.228;2022-08-21T09:29:25;25.80;42.60
68658;DHT22;55639;53.480;-2.228;2022-08-21T09:31:54;25.80;42.70
68658;DHT22;55639;53.480;-2.228;2022-08-21T09:34:28;25.80;42.70
68658;DHT22;55639;53.480;-2.228;2022-08-21T09:36:55;25.80;42.60
68658;DHT22;55639;53.480;-2.228;2022-08-21T09:39:30;25.80;43.20
68658;DHT22;55639;53.480;-2.228;2022-08-21T09:42:03;25.80;42.60
68658;DHT22;55639;53.480;-2.228;2022-08-21T09:44:35;25.80;42.60
68658;DHT22;55639;53.480;-2.228;2022-08-21T09:47:05;25.80;42.50
68658;DHT22;55639;53.480;-2.228;2022-08-21T09:49:34;25.80;42.50
68658;DHT22;55639;53.480;-2.228;2022-08-21T09:52:01;25.80;42.50
68658;DHT22;55639;53.480;-2.228;2022-08-21T09:54:37;25.80;42.50
68658;DHT22;55639;53.480;-2.228;2022-08-21T09:59:55;25.80;42.50
68658;DHT22;55639;53.480;-2.228;2022-08-21T10:02:34;25.80;42.50
68658;DHT22;55639;53.480;-2.228;2022-08-21T10:05:03;25.80;42.50
68658;DHT22;55639;53.480;-2.228;2022-08-21T10:07:35;25.80;42.50
68658;DHT22;55639;53.480;-2.228;2022-08-21T10:10:07;25.80;42.50
68658;DHT22;55639;53.480;-2.228;2022-08-21T10:26:44;25.80;42.50
68658;DHT22;55639;53.480;-2.228;2022-08-21T10:40:10;25.80;42.40
68658;DHT22;55639;53.480;-2.228;2022-08-21T10:48:44;25.80;42.40
68658;DHT22;55639;53.480;-2.228;2022-08-21T10:56:57;25.80;42.40
68658;DHT22;55639;53.480;-2.228;2022-08-21T10:59:33;25.80;42.40
68658;DHT22;55639;53.480;-2.228;2022-08-21T11:02:17;25.80;42.40
68658;DHT22;55639;53.480;-2.228;2022-08-21T11:04:57;25.80;42.40
68658;DHT22;55639;53.480;-2.228;2022-08-21T11:10:37;25.80;42.40
68658;DHT22;55639;53.480;-2.228;2022-08-21T11:13:19;25.80;42.40
68658;DHT22;55639;53.480;-2.228;2022-08-21T11:16:07;25.80;42.40
68658;DHT22;55639;53.480;-2.228;2022-08-21T11:18:43;25.80;42.40
68658;DHT22;55639;53.480;-2.228;2022-08-21T11:21:34;25.80;42.40
68658;DHT22;55639;53.480;-2.228;2022-08-21T11:26:32;25.80;42.40
68658;DHT22;55639;53.480;-2.228;2022-08-21T11:29:17;25.80;42.30
68658;DHT22;55639;53.480;-2.228;2022-08-21T11:34:44;25.80;42.30
68658;DHT22;55639;53.480;-2.228;2022-08-21T12:00:30;25.80;42.10
68658;DHT22;55639;53.480;-2.228;2022-08-21T12:03:06;25.80;42.10
68658;DHT22;55639;53.480;-2.228;2022-08-21T12:05:44;25.80;42.10
68658;DHT22;55639;53.480;-2.228;2022-08-21T12:08:15;25.80;42.10
68658;DHT22;55639;53.480;-2.228;2022-08-21T12:11:22;25.80;42.10
68658;DHT22;55639;53.480;-2.228;2022-08-21T12:14:11;25.80;42.10
68658;DHT22;55639;53.480;-2.228;2022-08-21T12:16:40;25.90;42.10
68658;DHT22;55639;53.480;-2.228;2022-08-21T12:19:27;25.80;42.00
68658;DHT22;55639;53.480;-2.228;2022-08-21T12:27:14;25.90;42.00
68658;DHT22;55639;53.480;-2.228;2022-08-21T12:30:18;25.90;42.00
68658;DHT22;55639;53.480;-2.228;2022-08-21T12:32:43;25.90;42.00
68658;DHT22;55639;53.480;-2.228;2022-08-21T12:35:21;25.90;42.00
68658;DHT22;55639;53.480;-2.228;2022-08-21T12:37:56;25.90;41.90
68658;DHT22;55639;53.480;-2.228;2022-08-21T12:40:30;26.00;41.90
68658;DHT22;55639;53.480;-2.228;2022-08-21T12:42:59;25.90;41.90
68658;DHT22;55639;53.480;-2.228;2022-08-21T12:45:34;26.00;41.90
68658;DHT22;55639;53.480;-2.228;2022-08-21T12:48:10;26.00;41.90
68658;DHT22;55639;53.480;-2.228;2022-08-21T12:55:53;26.00;41.80
68658;DHT22;55639;53.480;-2.228;2022-08-21T12:58:25;26.10;41.80
68658;DHT22;55639;53.480;-2.228;2022-08-21T13:01:02;26.10;41.80
68658;DHT22;55639;53.480;-2.228;2022-08-21T13:03:29;26.10;41.70
68658;DHT22;55639;53.480;-2.228;2022-08-21T13:05:57;26.10;41.70
68658;DHT22;55639;53.480;-2.228;2022-08-21T13:08:25;26.10;41.70
68658;DHT22;55639;53.480;-2.228;2022-08-21T13:11:02;26.10;41.70
68658;DHT22;55639;53.480;-2.228;2022-08-21T13:13:29;26.10;41.60
68658;DHT22;55639;53.480;-2.228;2022-08-21T13:16:03;26.20;41.60
68658;DHT22;55639;53.480;-2.228;2022-08-21T13:18:31;26.20;41.50
68658;DHT22;55639;53.480;-2.228;2022-08-21T13:21:07;26.20;41.50
68658;DHT22;55639;53.480;-2.228;2022-08-21T13:23:33;26.20;41.40
68658;DHT22;55639;53.480;-2.228;2022-08-21T13:25:59;26.20;41.50
68658;DHT22;55639;53.480;-2.228;2022-08-21T13:28:33;26.20;41.50
68658;DHT22;55639;53.480;-2.228;2022-08-21T13:31:00;26.20;41.50
68658;DHT22;55639;53.480;-2.228;2022-08-21T13:33:30;26.20;41.40
68658;DHT22;55639;53.480;-2.228;2022-08-21T13:38:31;26.30;41.40
68658;DHT22;55639;53.480;-2.228;2022-08-21T13:41:02;26.30;41.40
68658;DHT22;55639;53.480;-2.228;2022-08-21T13:43:33;26.40;41.40
68658;DHT22;55639;53.480;-2.228;2022-08-21T13:46:00;26.40;41.30
68658;DHT22;55639;53.480;-2.228;2022-08-21T13:48:28;26.40;41.30
68658;DHT22;55639;53.480;-2.228;2022-08-21T13:50:56;26.50;41.90
68658;DHT22;55639;53.480;-2.228;2022-08-21T13:55:55;26.50;41.20
68658;DHT22;55639;53.480;-2.228;2022-08-21T13:58:31;26.50;41.20
68658;DHT22;55639;53.480;-2.228;2022-08-21T14:00:58;26.50;41.10
68658;DHT22;55639;53.480;-2.228;2022-08-21T14:03:42;26.60;41.10
68658;DHT22;55639;53.480;-2.228;2022-08-21T14:06:18;26.60;41.10
68658;DHT22;55639;53.480;-2.228;2022-08-21T14:09:32;26.60;41.00
68658;DHT22;55639;53.480;-2.228;2022-08-21T14:11:37;26.70;41.00
68658;DHT22;55639;53.480;-2.228;2022-08-21T14:14:20;26.70;41.00
68658;DHT22;55639;53.480;-2.228;2022-08-21T14:17:02;26.70;41.00
68658;DHT22;55639;53.480;-2.228;2022-08-21T14:19:49;26.80;41.00
68658;DHT22;55639;53.480;-2.228;2022-08-21T14:25:12;26.90;40.90
68658;DHT22;55639;53.480;-2.228;2022-08-21T14:27:48;26.90;40.90
68658;DHT22;55639;53.480;-2.228;2022-08-21T14:30:25;27.00;40.80
68658;DHT22;55639;53.480;-2.228;2022-08-21T14:32:52;27.00;40.70
68658;DHT22;55639;53.480;-2.228;2022-08-21T14:35:17;27.00;40.70
68658;DHT22;55639;53.480;-2.228;2022-08-21T14:37:45;27.00;40.70
68658;DHT22;55639;53.480;-2.228;2022-08-21T14:40:11;27.00;40.60
68658;DHT22;55639;53.480;-2.228;2022-08-21T14:42:39;27.10;40.70
68658;DHT22;55639;53.480;-2.228;2022-08-21T14:45:17;27.10;40.70
68658;DHT22;55639;53.480;-2.228;2022-08-21T14:47:44;27.10;40.70
68658;DHT22;55639;53.480;-2.228;2022-08-21T14:50:11;27.10;40.70
68658;DHT22;55639;53.480;-2.228;2022-08-21T14:52:38;27.00;40.60
68658;DHT22;55639;53.480;-2.228;2022-08-21T14:55:06;27.10;40.80
68658;DHT22;55639;53.480;-2.228;2022-08-21T14:57:33;27.10;40.80
68658;DHT22;55639;53.480;-2.228;2022-08-21T15:00:00;27.10;40.80
68658;DHT22;55639;53.480;-2.228;2022-08-21T15:02:26;27.10;40.80
68658;DHT22;55639;53.480;-2.228;2022-08-21T15:04:51;27.10;40.80
68658;DHT22;55639;53.480;-2.228;2022-08-21T15:07:17;27.10;41.40
68658;DHT22;55639;53.480;-2.228;2022-08-21T15:09:43;27.10;40.80
68658;DHT22;55639;53.480;-2.228;2022-08-21T15:12:09;27.10;40.80
68658;DHT22;55639;53.480;-2.228;2022-08-21T15:14:38;27.10;40.80
68658;DHT22;55639;53.480;-2.228;2022-08-21T15:17:06;27.20;40.80
68658;DHT22;55639;53.480;-2.228;2022-08-21T15:19:32;27.20;40.80
68658;DHT22;55639;53.480;-2.228;2022-08-21T15:21:58;27.20;40.70
68658;DHT22;55639;53.480;-2.228;2022-08-21T15:24:24;27.20;40.70
68658;DHT22;55639;53.480;-2.228;2022-08-21T15:26:51;27.20;40.70
68658;DHT22;55639;53.480;-2.228;2022-08-21T15:29:17;27.20;41.40
68658;DHT22;55639;53.480;-2.228;2022-08-21T15:31:55;27.20;40.80
68658;DHT22;55639;53.480;-2.228;2022-08-21T15:34:23;27.20;40.80
68658;DHT22;55639;53.480;-2.228;2022-08-21T15:36:49;27.20;40.80
68658;DHT22;55639;53.480;-2.228;2022-08-21T15:39:14;27.20;40.80
68658;DHT22;55639;53.480;-2.228;2022-08-21T15:41:40;27.20;40.80
68658;DHT22;55639;53.480;-2.228;2022-08-21T15:44:06;27.20;40.80
68658;DHT22;55639;53.480;-2.228;2022-08-21T15:46:34;27.30;40.90
68658;DHT22;55639;53.480;-2.228;2022-08-21T15:48:59;27.30;40.90
68658;DHT22;55639;53.480;-2.228;2022-08-21T15:51:25;27.30;40.80
68658;DHT22;55639;53.480;-2.228;2022-08-21T15:53:51;27.30;40.80
68658;DHT22;55639;53.480;-2.228;2022-08-21T15:56:24;27.40;40.90
68658;DHT22;55639;53.480;-2.228;2022-08-21T15:58:53;27.40;40.80
68658;DHT22;55639;53.480;-2.228;2022-08-21T16:01:21;27.40;40.80
68658;DHT22;55639;53.480;-2.228;2022-08-21T16:03:50;27.50;40.80
68658;DHT22;55639;53.480;-2.228;2022-08-21T16:06:17;27.50;40.70
68658;DHT22;55639;53.480;-2.228;2022-08-21T16:08:43;27.50;40.70
68658;DHT22;55639;53.480;-2.228;2022-08-21T16:11:09;27.50;40.60
68658;DHT22;55639;53.480;-2.228;2022-08-21T16:13:39;27.60;40.70
68658;DHT22;55639;53.480;-2.228;2022-08-21T16:16:09;27.60;40.70
68658;DHT22;55639;53.480;-2.228;2022-08-21T16:18:35;27.60;40.70
68658;DHT22;55639;53.480;-2.228;2022-08-21T16:21:01;27.60;40.70
68658;DHT22;55639;53.480;-2.228;2022-08-21T16:23:27;27.60;40.70
68658;DHT22;55639;53.480;-2.228;2022-08-21T16:25:54;27.60;40.70
68658;DHT22;55639;53.480;-2.228;2022-08-21T16:28:20;27.60;40.70
68658;DHT22;55639;53.480;-2.228;2022-08-21T16:30:47;27.60;40.70
68658;DHT22;55639;53.480;-2.228;2022-08-21T16:33:45;27.70;40.80
68658;DHT22;55639;53.480;-2.228;2022-08-21T16:36:12;27.70;40.70
68658;DHT22;55639;53.480;-2.228;2022-08-21T16:38:39;27.60;40.70
68658;DHT22;55639;53.480;-2.228;2022-08-21T16:41:13;27.70;40.70
68658;DHT22;55639;53.480;-2.228;2022-08-21T16:43:41;27.70;40.70
68658;DHT22;55639;53.480;-2.228;2022-08-21T16:46:09;27.70;40.70
68658;DHT22;55639;53.480;-2.228;2022-08-21T16:48:34;27.80;40.70
68658;DHT22;55639;53.480;-2.228;2022-08-21T16:51:00;27.80;40.60
68658;DHT22;55639;53.480;-2.228;2022-08-21T16:53:26;27.80;40.60
68658;DHT22;55639;53.480;-2.228;2022-08-21T16:55:52;27.80;40.50
68658;DHT22;55639;53.480;-2.228;2022-08-21T16:58:28;27.90;40.50
68658;DHT22;55639;53.480;-2.228;2022-08-21T17:00:54;27.90;40.50
68658;DHT22;55639;53.480;-2.228;2022-08-21T17:03:22;27.90;40.50
68658;DHT22;55639;53.480;-2.228;2022-08-21T17:05:49;27.90;40.50
68658;DHT22;55639;53.480;-2.228;2022-08-21T17:08:15;27.90;40.50
68658;DHT22;55639;53.480;-2.228;2022-08-21T17:10:47;27.90;40.40
68658;DHT22;55639;53.480;-2.228;2022-08-21T17:13:13;27.90;40.30
68658;DHT22;55639;53.480;-2.228;2022-08-21T17:15:40;27.90;40.20
68658;DHT22;55639;53.480;-2.228;2022-08-21T17:18:12;27.90;40.40